Les BAROUDEURS "WOULIB" 21 kms le 11/10/2015

Recherche par Dossard : par Nom : par Club :

Place Dossard Nom Prenom Cat. Pl. Cat. Temps Club Sexe
1 165 RAMANICK STELVE V1 1 02:35:45 MAIRIE SPORTIVE M
2 135 ABATORD Louis-Michel V1 2 02:35:45 aiglon du lamentin M
3 110 HILDERALD Isnard V2 1 02:55:52 TEAM APENNTOUCHE 972 M
4 10 TRAMMA FRED V2 2 02:56:37 GOLDEN STAR M
5 111 PONCHATEAU Jean Pierre V1 3 02:56:46 TEAM APENNTOUCHE 972 /MANIKOU / TLT972/ RM M
6 124 SIBADO Albert V2 3 03:05:34 MANIKOU M
7 182 CRÉTÉ Mathias V1 4 03:06:02 M
8 29 MESLIEN OLIVIER SE 1 03:06:45 M
9 146 ANEXIME ALAIN V2 4 03:07:54 TCHIMBERAID / LES BAROUDEURS M
10 152 HOSPICE Jean pierre V2 5 03:11:05 SAM HORIZON M
11 90 ROSIER PATRICK V2 6 03:11:12 M
12 99 CAYOL EDDY V1 5 03:12:32 M
13 64 LIN Guy Albert V2 7 03:14:43 LES BAROUDEURS M
14 31 CHRISTINE Jean-charles V1 6 03:16:05 club colonial M
15 188 PAUCHAULT ALAIN SE 2 03:16:24 ASRFO972/ENTENTE SEVRES M
16 209 BRACO GRATIEN V2 8 03:18:25 M
17 207 LECURU REMI SE 3 03:18:54 M
18 161 NAGBO JEAN SE 4 03:19:41 M
19 82 ARMEDE Roddy V1 7 03:19:50 Club Tchimbé Raid M
20 21 ROUBLIQUE Elysabeth V1 1 03:24:13 F
21 6 AGRICOLE FRED V2 9 03:25:24 MANIKOU / Team LAM-TRAIL972 M
22 186 COURANT GUY V2 10 03:26:35 M
23 56 DORIZON Jerry V1 8 03:26:55 Manikou M
24 67 LANGLAIS GWENAEL SE 5 03:29:23 Base navale M
25 175 THORAVAL Laura SE 1 03:31:44 AMCF F
26 157 RONOT Rodolphe SE 6 03:32:45 M
27 176 ROBINOT Charles SE 7 03:33:52 M
28 156 LUCARELLI MICHAEL SE 8 03:35:16 M
29 129 JUNG JEAN LUC V2 11 03:37:21 M
30 145 VERRES ALEXANDRE V2 12 03:38:37 TEAM APENNTOUCHE 972 M
31 45 PIGAREFF Pascal SE 9 03:38:51 M
32 83 ANSQUER YANN V1 9 03:39:33 M
33 147 LAHELY (FJT CYCAS) Mathieu SE 10 03:40:22 M
34 41 BONIFACIE Samy V1 10 03:41:19 Tchimbe Raid M
35 27 GAY HERVE SE 11 03:41:36 Manikou M
36 172 ROTIN Youry SE 12 03:41:36 Team Lams trail 972 M
37 16 ADENET CLARA SE 2 03:43:12 madinina bikers/ team d mich F
38 44 GUSTAVE Gulliano SE 13 03:43:21 FR MORNE PITAULT M
39 142 ROMER Rodrigue V1 11 03:44:24 M
40 177 BERNARD Yoann SE 14 03:45:06 M
41 24 OZIER LAFONTAINE Michel V1 12 03:45:59 M
42 104 MEHAL LIONEL V1 13 03:46:03 M
43 13 DELAPORTE Xavier V1 14 03:46:08 Manikou M
44 61 NEHR Isabelle V1 2 03:46:29 Tchimbe Raid F
45 72 BENARD JULIEN SE 15 03:46:46 Base navale M
46 205 LEVY GABRIEL V3 1 03:49:33 GOLDEN STAR M
47 81 ABDOU SOUFFOU DJOUMA SE 16 03:49:33 RSMAM M
48 20 DEFOI Luce V2 1 03:51:13 F
49 194 DE LEPINE RUDY SE 17 03:51:55 MAIRIE SPORTIVE M
50 53 LE GUERN GUILLAUME SE 18 03:52:14 Aiglon du Lamentin M
51 35 CLODIUS ALEX V2 13 03:52:17 M
52 178 CRAMER Alain-Mathieu V1 15 03:52:42 MANIKOU M
53 46 BELLIER Denis SE 19 03:52:45 Tchimbé Raid M
54 102 TOUCHE BENOIT V2 14 03:52:50 M
55 30 RABERIN RUBY Florence V1 3 03:53:05 F
56 50 NERET Rony V1 16 03:53:59 M
57 133 LEHUEDE Céline V1 4 03:54:08 F
58 198 GARCIA Jean Luc V2 15 03:55:04 USCD BASSE POINTE M
59 86 BOULANGER David SE 20 03:55:55 M
60 23 MACROIX JACQUES SE 21 03:56:22 M
61 193 GRAPINDOR Bruno V2 16 03:56:22 M
62 162 RAKOTOARINOSY ROBY V1 17 03:56:49 MANIKOU M
63 114 DECOU Jérémy SE 22 03:57:18 Tchimbé Raid M
64 93 MASSOUE Erick germain V1 18 03:58:23 M
65 57 MAHE Regis SE 23 03:58:47 M
66 42 LE MASSON Franck V1 19 03:59:11 tchimbe raid M
67 180 MUCRET Bernard SE 24 04:00:31 M
68 169 SABAN SANDRINE V1 5 04:00:40 MAIRIE SPORTIVE F
69 96 LAFAGE CHARLY SE 25 04:01:42 M
70 128 LERY Eddy V1 20 04:02:09 M
71 159 MARIE-JOSEPH Christian SE 26 04:02:30 M
72 167 ARRONDELL OLIVIER V1 21 04:05:22 MAIRIE SPORTIVE M
73 12 BRISARD PASCAL V2 17 04:06:32 MANIKOU M
74 189 VIAUD YANNICK V1 22 04:06:32 M
75 43 BELAY Marie christine SE 3 04:08:08 FR MORNE PITAULT F
76 141 GUILLORIT Agnčs V1 6 04:08:18 F
77 37 CURFS Hubert V3 2 04:08:43 tjembéraid M
78 15 GROS Jean-michel SE 27 04:10:18 madinina bikers/ team d mich M
79 49 FOURNEAU Jean-Marie V1 23 04:10:18 Caribbean Trail Devourer M
80 208 BAVARIN ALEXANDRE SE 28 04:11:10 M
81 9 JEAN-JOSEPH Stephane SE 29 04:11:59 TEAM D MICH M
82 127 ALMAR Nathalie SE 4 04:12:17 F
83 48 BAJOC Thierry SE 30 04:12:35 M
84 79 BRISSON Damien SE 31 04:14:28 Non Licencié M
85 7 ALLAIN CLAUDE V1 24 04:14:28 M
86 115 FABREGUES Jerome V1 25 04:17:15 MANIKOU M
87 70 CLAUSS DIDIER V2 18 04:18:07 Base navale M
88 154 BULLET ALEX V2 19 04:18:21 M
89 73 FELICIA Rodrigue SE 32 04:18:36 M
90 108 MAYAUD Sylvain V2 20 04:18:36 cgos M
91 168 GARNON PASCAL V3 3 04:19:09 MAIRIE SPORTIVE M
92 150 JEAN BAPTISTE DIALLO Judith V1 7 04:20:19 sam horizon F
93 107 BARROIS Claire SE 5 04:21:31 F
94 106 BARROIS Nicolas SE 33 04:21:31 M
95 97 CHANTRAIT CYRIL V1 26 04:21:35 TCHIMBE RAID M
96 206 ORRIBE ALEXANDRE V1 27 04:21:36 M
97 75 DE CHAVIGNY PAULINE SE 6 04:22:13 F
98 74 RONCO Manon SE 7 04:22:13 F
99 63 FAUVEAU Brigitte V2 2 04:22:13 F
100 163 GITTON GERARD V3 4 04:23:46 TCHIMBE RAID M
101 195 BALLAND Marc V2 21 04:23:55 M
102 98 PICHI MANUEL V1 28 04:27:14 ASC SARA M
103 8 GROUGEARD CHRISTOPHE V1 29 04:27:15 M
104 60 RAFFIN Hervé V1 30 04:27:20 AMCF/TLT972 M
105 101 BOCLE Marc V1 31 04:27:23 M
106 113 LEGENDRY LIONEL V1 32 04:27:37 M
107 190 FERRER FREDERIC V1 33 04:27:44 MANIKOU M
108 38 LEFEBVRE Thierry V2 22 04:27:56 Team Lamentin Trail M
109 119 GORVIEN Gilles V1 34 04:29:41 M
110 26 DE GUBERNATIS Djedjiga SE 8 04:29:43 Golden Star F
111 80 MARCHAIS Hubert V1 35 04:29:56 M
112 103 LOUIS-FERDINAND Raymond V2 23 04:30:26 M
113 14 RENAULT FREDERIC V1 36 04:31:20 GOLDEN STAR M
114 122 ROUX Sebastien SE 34 04:32:22 M
115 100 GOUSMAN Chrystel V2 3 04:34:34 F
116 33 SONEL EDOUARD Teddy V1 37 04:38:36 CLUB TCHIMBE RAID M
117 164 ERICHER Charles-Henry V1 38 04:40:33 M
118 28 BEATRIX OLIVIER SE 35 04:40:35 M
119 94 ARCADE Jean philippe V2 24 04:40:35 M
120 87 TINAS DOMINIQUE V1 39 04:41:07 M
121 187 JEREMIE Tony SE 36 04:41:26 M
122 179 HOSTINGUE THERESE V1 8 04:42:34 F
123 173 PARIS David V1 40 04:42:34 M
124 52 DE FRANCIOSI Philippe V2 25 04:45:20 MANIKOU M
125 1 LOUIS-MARIE Christian V1 41 04:49:34 GOLDEN STAR M
126 201 JENASTE Sandra SE 9 04:50:24 F
127 138 JOSEPH-SYLVESTRE Johanne SE 10 04:50:24 Sam horizon 2000 F
128 11 DEMONIERE EDGARD V3 5 04:50:25 M
129 160 LOUISE FRED V1 42 04:50:25 TCHIMBE RAID M
130 155 HILLION Patrick V2 26 04:52:43 TCHIMBE RAID M
131 191 LOUISY Romain SE 37 04:54:45 M
132 204 DUPIN THIERRY V2 27 04:54:54 M
133 197 COICAUD Hervé V2 28 04:56:49 M
134 149 ENGRY Michel SE 38 04:58:19 tchimbe M
135 62 FILOPON LAURE V1 9 04:59:23 F
136 125 LOUIS JOSEPH Michael V1 43 04:59:47 M
137 66 DIETRICH NICOLAS SE 39 05:00:32 Base navale M
138 192 COLONNETTE-FILIN Clarisse SE 11 05:01:37 TCHIMBERAID F
139 71 FERRASSE JENNIFER SE 12 05:06:39 Base navale F
140 171 RAPHA DANNY V2 4 05:07:34 MAIRIE SPORTIVE F
141 78 JACOBIERE Henri V3 6 05:07:34 Tchimbé Raid M
142 105 FONTAINE FRANTZ V2 29 05:08:08 M
143 55 HONORE Yann V1 44 05:08:10 Tchimbe raid M
144 47 ERIDAN Patricia V1 10 05:09:54 team apenn touché F
145 123 ARES Emmanuelle V1 11 05:13:27 F
146 19 GRELET Veronique V1 12 05:16:00 F
147 200 ERICHER Marilyne V1 13 05:16:01 F
148 132 HELOISE Claude V1 45 05:17:22 M
149 4 GOSSE Valérie V1 14 05:18:02 TCHIMBERAID F
150 196 SY Jean- claude V2 30 05:20:44 Club Manikou M
151 95 LOUISY LOIC SE 40 05:22:55 A.M.C.F M
152 174 BIRBA Pascal V1 46 05:23:45 M
153 112 VILLAGEOIS Marie Louise V2 5 05:26:09 F
154 84 PASTEL NADINE SE 13 05:26:56 F
155 143 GERMANY FLORIAN JU 1 05:28:40 MADININA BIKERS M
156 144 GERMANY TATIANA V1 15 05:28:43 CLUB MANIKOU F
157 140 GERMANY FREDERIC V1 47 05:28:44 CLUB MANIKOU M
158 54 CLOE JEAN LOUIS V1 48 05:31:00 M
159 22 LECOMTE Gaëlle V1 16 05:32:46 F
160 89 VELAYOUDON CHARLES V1 49 05:32:46 M
161 88 VELAYOUDON AUDREY V1 17 05:32:46 F
162 130 SYMPHOR STEPHANE SE 41 05:38:18 SAM HORIZON M
163 34 LEAUSTIC Ronan V1 50 05:38:39 TEAM MANIKOU M
164 91 DESIR KATHLEEN SE 14 05:41:21 F
165 634 DEHER SANDRA SE 15 05:41:22 F
166 32 FAURIEUX YANNICK V2 31 05:44:13 Team LAM-TRAIL972 CLUB MANIKOU M
167 158 MORTON Jean Michel SE 42 05:44:39 M
168 58 TOUCHAIN Erwan SE 43 05:50:05 M
169 170 PASTEL GAETANE SE 16 05:50:44 MARIE SPORTIVE F
170 121 CHARPENTIER-TITY Georges-Louis V1 51 05:56:41 CARAĎB-MOTER M
171 85 BELLANCE DENIS V2 32 05:56:42 M
172 181 MELINARD Edwige SE 17 05:57:23 F
173 148 OUENSANGA Patrick V2 33 05:57:24 AMCF M
174 134 NAUDIN DOMINIQUE V3 1 06:08:44 MANIKOU F
175 40 VIDAL NATHALIE V1 18 06:21:25 F
176 131 LOBAS Germaine SE 18 06:23:26 Manikou Team TLT972 F
177 153 CLAIRICIA TANIA SE 19 06:23:30 SAM HORIZON F
178 39 CLOVIS SABINE SE 20 06:26:29 F